Time;durP1;ratioP1;P1;durP2;ratioP2;P2;SDS_P1;SDS_P2;PMS_P1;PMS_P2;Temp;Humidity;BMP_temperature;BMP_pressure;BME280_temperature;BME280_humidity;BME280_pressure;Samples;Min_cycle;Max_cycle;Signal;HPM_P1;HPM_P2
2023/04/11 00:00:09;;;;;;;;;1.75;1.00;;;;;;;;5058812;28;10265;-82
2023/04/11 00:02:37;;;;;;;;;0.75;0.75;;;;;;;;5053362;28;10127;-84
2023/04/11 00:05:05;;;;;;;;;1.00;1.00;;;;;;;;5046947;28;10263;-86
2023/04/11 00:07:32;;;;;;;;;1.00;1.00;;;;;;;;5049577;28;10180;-81
2023/04/11 00:10:01;;;;;;;;;3.50;1.00;;;;;;;;5052128;28;10026;-84
2023/04/11 00:12:31;;;;;;;;;2.50;1.00;;;;;;;;5051843;28;10247;-86
2023/04/11 00:14:58;;;;;;;;;1.00;1.00;;;;;;;;5043188;28;10233;-85
2023/04/11 00:17:30;;;;;;;;;0.50;0.50;;;;;;;;5050317;28;10167;-85
2023/04/11 00:20:00;;;;;;;;;5.00;2.50;;;;;;;;5051964;28;10178;-85
2023/04/11 00:22:29;;;;;;;;;4.00;1.75;;;;;;;;5049412;28;10307;-86
2023/04/11 00:24:56;;;;;;;;;2.00;2.00;;;;;;;;5052845;28;10237;-85
2023/04/11 00:27:25;;;;;;;;;3.00;1.75;;;;;;;;5053570;28;10174;-85
2023/04/11 00:29:55;;;;;;;;;1.00;1.00;;;;;;;;5054858;28;10302;-82
2023/04/11 00:32:22;;;;;;;;;1.75;1.00;;;;;;;;5053026;28;9974;-85
2023/04/11 00:34:49;;;;;;;;;2.50;2.50;;;;;;;;5044746;28;10117;-80
2023/04/11 00:37:20;;;;;;;;;3.00;1.00;;;;;;;;5041850;28;10125;-83
2023/04/11 00:39:49;;;;;;;;;2.00;1.50;;;;;;;;5038874;28;10189;-83
2023/04/11 00:42:16;;;;;;;;;3.75;2.50;;;;;;;;5051521;28;10227;-83
2023/04/11 00:44:45;;;;;;;;;2.50;1.00;;;;;;;;5041059;28;10345;-84
2023/04/11 00:47:13;;;;;;;;;3.75;2.00;;;;;;;;5040062;28;10129;-82
2023/04/11 00:49:41;;;;;;;;;3.00;1.00;;;;;;;;5045654;28;10392;-84
2023/04/11 00:52:08;;;;;;;;;1.00;1.00;;;;;;;;5051042;28;10259;-84
2023/04/11 00:54:35;;;;;;;;;3.25;2.00;;;;;;;;5050900;28;10363;-83
2023/04/11 00:57:04;;;;;;;;;2.75;1.25;;;;;;;;5051592;28;10196;-84
2023/04/11 00:59:32;;;;;;;;;1.00;1.00;;;;;;;;5051499;28;10247;-84
2023/04/11 01:02:01;;;;;;;;;4.00;1.50;;;;;;;;5052482;28;10358;-83
2023/04/11 01:04:29;;;;;;;;;3.00;1.25;;;;;;;;5048026;28;10233;-84
2023/04/11 01:07:00;;;;;;;;;4.50;2.25;;;;;;;;5050888;28;11028;-84
2023/04/11 01:09:29;;;;;;;;;6.00;2.00;;;;;;;;5049174;28;10294;-84
2023/04/11 01:11:57;;;;;;;;;2.00;2.00;;;;;;;;5044844;28;10330;-85
2023/04/11 01:14:25;;;;;;;;;2.00;1.50;;;;;;;;5049463;28;11009;-84
2023/04/11 01:16:52;;;;;;;;;0.00;0.00;;;;;;;;5048375;28;10341;-81
2023/04/11 01:19:22;;;;;;;;;2.00;2.00;;;;;;;;5051257;28;10422;-82
2023/04/11 01:21:50;;;;;;;;;3.75;2.25;;;;;;;;5046571;28;10463;-81
2023/04/11 01:24:19;;;;;;;;;2.00;2.00;;;;;;;;5051513;28;10379;-81
2023/04/11 01:26:47;;;;;;;;;3.75;2.00;;;;;;;;5047030;28;10320;-80
2023/04/11 01:29:14;;;;;;;;;4.50;2.50;;;;;;;;5050744;28;10346;-82
2023/04/11 01:31:41;;;;;;;;;3.75;1.50;;;;;;;;5050577;28;10352;-80
2023/04/11 01:34:11;;;;;;;;;3.00;3.00;;;;;;;;5043878;28;10365;-81
2023/04/11 01:36:39;;;;;;;;;1.00;1.00;;;;;;;;5049885;28;10478;-81
2023/04/11 01:39:07;;;;;;;;;2.00;2.00;;;;;;;;5049600;28;10398;-81
2023/04/11 01:41:36;;;;;;;;;2.25;2.25;;;;;;;;5049661;28;10583;-81
2023/04/11 01:44:04;;;;;;;;;2.00;2.00;;;;;;;;5045873;28;10534;-81
2023/04/11 01:46:31;;;;;;;;;3.00;3.00;;;;;;;;5040683;28;10390;-85
2023/04/11 01:48:59;;;;;;;;;2.00;2.00;;;;;;;;5046620;28;10486;-84
2023/04/11 01:51:27;;;;;;;;;1.00;1.00;;;;;;;;5048154;28;11419;-85
2023/04/11 01:53:54;;;;;;;;;2.50;2.50;;;;;;;;5041498;28;10261;-86
2023/04/11 01:56:21;;;;;;;;;2.50;2.25;;;;;;;;5048047;28;10590;-85
2023/04/11 01:58:50;;;;;;;;;2.50;2.50;;;;;;;;5044120;28;10227;-84
2023/04/11 02:01:18;;;;;;;;;2.00;2.00;;;;;;;;5043840;28;10363;-83
2023/04/11 02:03:45;;;;;;;;;2.50;1.00;;;;;;;;5051877;28;10405;-83
2023/04/11 02:06:13;;;;;;;;;5.25;2.75;;;;;;;;5049742;28;10303;-83
2023/04/11 02:08:40;;;;;;;;;3.00;3.00;;;;;;;;5049903;28;10506;-83
2023/04/11 02:11:08;;;;;;;;;8.00;2.75;;;;;;;;5045284;28;10339;-82
2023/04/11 02:13:35;;;;;;;;;1.00;1.00;;;;;;;;5049443;28;10472;-82
2023/04/11 02:16:10;;;;;;;;;4.75;2.00;;;;;;;;5049560;28;10569;-84
2023/04/11 02:18:37;;;;;;;;;1.25;1.25;;;;;;;;5049881;28;10521;-81
2023/04/11 02:21:05;;;;;;;;;1.75;1.75;;;;;;;;5051539;28;10458;-84
2023/04/11 02:23:33;;;;;;;;;2.00;2.00;;;;;;;;5052318;28;10309;-82
2023/04/11 02:26:00;;;;;;;;;6.00;2.00;;;;;;;;5053954;28;10568;-83
2023/04/11 02:28:28;;;;;;;;;2.25;2.25;;;;;;;;5054543;28;10474;-80
2023/04/11 02:30:55;;;;;;;;;2.50;1.25;;;;;;;;5050982;28;10409;-81
2023/04/11 02:33:25;;;;;;;;;3.00;1.25;;;;;;;;5051801;28;11363;-80
2023/04/11 02:35:52;;;;;;;;;4.00;2.25;;;;;;;;5044974;28;10686;-81
2023/04/11 02:38:19;;;;;;;;;2.25;1.00;;;;;;;;5048034;28;10602;-85
2023/04/11 02:40:47;;;;;;;;;4.25;1.00;;;;;;;;5049010;28;11357;-82
2023/04/11 02:43:15;;;;;;;;;4.75;2.00;;;;;;;;5040701;28;10553;-83
2023/04/11 02:45:42;;;;;;;;;2.00;2.00;;;;;;;;5049209;28;10636;-81
2023/04/11 02:48:09;;;;;;;;;4.25;1.25;;;;;;;;5049066;28;10683;-84
2023/04/11 02:50:39;;;;;;;;;4.50;2.00;;;;;;;;5048932;28;10615;-84
2023/04/11 02:53:07;;;;;;;;;3.00;3.00;;;;;;;;5048751;28;10695;-85
2023/04/11 02:55:34;;;;;;;;;1.00;1.00;;;;;;;;5048557;28;10776;-83
2023/04/11 02:58:02;;;;;;;;;3.25;2.00;;;;;;;;5048796;28;10655;-83
2023/04/11 03:00:29;;;;;;;;;0.00;0.00;;;;;;;;5047665;28;10714;-83
2023/04/11 03:02:57;;;;;;;;;3.00;2.00;;;;;;;;5050264;28;10824;-83
2023/04/11 03:05:25;;;;;;;;;1.00;1.00;;;;;;;;5051075;28;10740;-82
2023/04/11 03:07:53;;;;;;;;;2.50;1.00;;;;;;;;5048066;28;10755;-83
2023/04/11 03:10:20;;;;;;;;;2.25;1.00;;;;;;;;5049579;28;10661;-82
2023/04/11 03:12:48;;;;;;;;;5.50;1.50;;;;;;;;5049633;28;11468;-82
2023/04/11 03:15:16;;;;;;;;;3.00;1.00;;;;;;;;5048110;28;10916;-82
2023/04/11 03:17:43;;;;;;;;;1.75;1.00;;;;;;;;5049040;28;10714;-84
2023/04/11 03:20:12;;;;;;;;;1.00;1.00;;;;;;;;5045834;28;10807;-81
2023/04/11 03:22:39;;;;;;;;;2.00;1.00;;;;;;;;5048729;28;10923;-81
2023/04/11 03:25:09;;;;;;;;;1.00;1.00;;;;;;;;5047703;28;10746;-82
2023/04/11 03:27:36;;;;;;;;;1.00;1.00;;;;;;;;5048465;28;10689;-79
2023/04/11 03:30:04;;;;;;;;;3.00;3.00;;;;;;;;5045474;28;10834;-80
2023/04/11 03:32:31;;;;;;;;;2.75;1.25;;;;;;;;5048167;28;11142;-80
2023/04/11 03:35:01;;;;;;;;;2.00;2.00;;;;;;;;5048216;28;11077;-80
2023/04/11 03:37:28;;;;;;;;;3.00;2.00;;;;;;;;5048996;28;11008;-81
2023/04/11 03:39:55;;;;;;;;;3.00;3.00;;;;;;;;5048607;28;11560;-83
2023/04/11 03:42:24;;;;;;;;;2.50;2.50;;;;;;;;5046502;28;10970;-83
2023/04/11 03:44:51;;;;;;;;;2.00;2.00;;;;;;;;5048154;28;10847;-82
2023/04/11 03:47:18;;;;;;;;;2.00;1.00;;;;;;;;5045387;28;10808;-83
2023/04/11 03:49:45;;;;;;;;;0.00;0.00;;;;;;;;5047529;28;10750;-84
2023/04/11 03:52:14;;;;;;;;;2.00;1.00;;;;;;;;5047493;28;10908;-84
2023/04/11 03:54:41;;;;;;;;;3.50;2.00;;;;;;;;5048099;28;10767;-84
2023/04/11 03:57:08;;;;;;;;;4.00;1.00;;;;;;;;5032185;28;10826;-82
2023/04/11 03:59:37;;;;;;;;;1.00;1.00;;;;;;;;5048563;28;10842;-84
2023/04/11 04:02:04;;;;;;;;;3.50;1.50;;;;;;;;5047693;28;10703;-84
2023/04/11 04:04:32;;;;;;;;;2.75;1.00;;;;;;;;5049790;28;10674;-84
2023/04/11 04:07:00;;;;;;;;;4.25;1.00;;;;;;;;5051156;28;10770;-85
2023/04/11 04:09:28;;;;;;;;;1.00;1.00;;;;;;;;5051521;28;10682;-84
2023/04/11 04:11:56;;;;;;;;;2.25;2.25;;;;;;;;5052934;28;10764;-84
2023/04/11 04:14:23;;;;;;;;;1.75;1.75;;;;;;;;5060176;28;10834;-82
2023/04/11 04:16:52;;;;;;;;;1.50;1.50;;;;;;;;5041289;28;10951;-82
2023/04/11 04:19:19;;;;;;;;;4.00;1.00;;;;;;;;5056237;28;10748;-84
2023/04/11 04:21:46;;;;;;;;;4.00;1.00;;;;;;;;5057462;28;10818;-85
2023/04/11 04:24:13;;;;;;;;;4.75;1.75;;;;;;;;5036087;28;11273;-84
2023/04/11 04:26:41;;;;;;;;;1.00;1.00;;;;;;;;5050922;28;10672;-81
2023/04/11 04:29:11;;;;;;;;;2.00;1.00;;;;;;;;5050860;28;10680;-81
2023/04/11 04:31:39;;;;;;;;;4.50;2.00;;;;;;;;5050759;28;10726;-85
2023/04/11 04:34:09;;;;;;;;;3.50;2.25;;;;;;;;5041422;28;10851;-83
2023/04/11 04:36:45;;;;;;;;;3.50;1.00;;;;;;;;5045547;28;10769;-81
2023/04/11 04:39:16;;;;;;;;;3.00;1.75;;;;;;;;5045763;28;10900;-83
2023/04/11 04:41:44;;;;;;;;;4.50;1.50;;;;;;;;5050520;28;10807;-85
2023/04/11 04:44:11;;;;;;;;;4.50;1.25;;;;;;;;5051546;28;10863;-89
2023/04/11 04:46:40;;;;;;;;;2.25;2.00;;;;;;;;5051110;28;11481;-89
2023/04/11 04:49:10;;;;;;;;;1.25;1.25;;;;;;;;5051231;28;10689;-92
2023/04/11 04:51:39;;;;;;;;;0.75;0.75;;;;;;;;5051103;28;10674;-86
2023/04/11 04:54:06;;;;;;;;;2.50;0.50;;;;;;;;5050272;28;10774;-87
2023/04/11 04:56:33;;;;;;;;;5.25;2.00;;;;;;;;5050011;28;10897;-82
2023/04/11 04:59:00;;;;;;;;;2.75;1.00;;;;;;;;5049740;28;10822;-84
2023/04/11 05:01:28;;;;;;;;;5.00;2.75;;;;;;;;5049239;28;10601;-75
2023/04/11 05:03:58;;;;;;;;;1.50;1.50;;;;;;;;5050084;28;10739;-76
2023/04/11 05:06:31;;;;;;;;;3.50;1.50;;;;;;;;5049816;28;11472;-73
2023/04/11 05:09:00;;;;;;;;;2.00;0.00;;;;;;;;5049117;28;10696;-72
2023/04/11 05:11:28;;;;;;;;;1.00;1.00;;;;;;;;5049243;28;10658;-73
2023/04/11 05:13:55;;;;;;;;;3.00;1.25;;;;;;;;5049143;28;10790;-75
2023/04/11 05:16:22;;;;;;;;;2.00;2.00;;;;;;;;5042592;28;10700;-72
2023/04/11 05:18:50;;;;;;;;;3.75;2.00;;;;;;;;5048506;28;10717;-72
2023/04/11 05:21:17;;;;;;;;;3.00;1.50;;;;;;;;5047030;28;10785;-73
2023/04/11 05:23:45;;;;;;;;;3.50;1.00;;;;;;;;5048724;28;10698;-73
2023/04/11 05:26:13;;;;;;;;;1.25;1.25;;;;;;;;5049104;28;10717;-74
2023/04/11 05:28:40;;;;;;;;;3.75;1.00;;;;;;;;5049351;28;11639;-74
2023/04/11 05:31:08;;;;;;;;;3.00;1.00;;;;;;;;5048102;28;10776;-75
2023/04/11 05:33:37;;;;;;;;;1.00;1.00;;;;;;;;5049381;28;10745;-75
2023/04/11 05:36:05;;;;;;;;;1.50;1.00;;;;;;;;5048190;28;10905;-73
2023/04/11 05:38:32;;;;;;;;;1.50;1.00;;;;;;;;5044362;28;10604;-75
2023/04/11 05:41:01;;;;;;;;;1.25;1.00;;;;;;;;5038180;28;10606;-76
2023/04/11 05:43:28;;;;;;;;;1.00;1.00;;;;;;;;5049054;28;10819;-77
2023/04/11 05:45:56;;;;;;;;;2.25;1.50;;;;;;;;5048454;28;10975;-76
2023/04/11 05:48:24;;;;;;;;;2.00;2.00;;;;;;;;5048831;28;10823;-77
2023/04/11 05:50:51;;;;;;;;;3.75;1.00;;;;;;;;5048202;28;10853;-75
2023/04/11 05:53:18;;;;;;;;;2.25;1.75;;;;;;;;5048525;28;10846;-73
2023/04/11 05:55:45;;;;;;;;;3.00;2.00;;;;;;;;5048178;28;10830;-74
2023/04/11 05:58:14;;;;;;;;;2.75;2.75;;;;;;;;5041559;28;10793;-74
2023/04/11 06:00:41;;;;;;;;;1.50;1.00;;;;;;;;5040956;28;10782;-75
2023/04/11 06:03:09;;;;;;;;;0.75;0.75;;;;;;;;5048952;28;10818;-74
2023/04/11 06:05:36;;;;;;;;;2.00;2.00;;;;;;;;5048965;28;10867;-72
2023/04/11 06:08:05;;;;;;;;;2.50;2.25;;;;;;;;5039804;28;10674;-74
2023/04/11 06:10:32;;;;;;;;;7.25;2.00;;;;;;;;5048513;28;10840;-74
2023/04/11 06:12:59;;;;;;;;;6.25;2.00;;;;;;;;5053041;28;10801;-72
2023/04/11 06:15:29;;;;;;;;;1.75;1.25;;;;;;;;5043476;28;10654;-74
2023/04/11 06:17:56;;;;;;;;;2.00;2.00;;;;;;;;5042508;28;10699;-72
2023/04/11 06:20:24;;;;;;;;;3.00;1.75;;;;;;;;5047942;28;10748;-74
2023/04/11 06:22:51;;;;;;;;;2.50;2.00;;;;;;;;5045587;28;10769;-72
2023/04/11 06:25:19;;;;;;;;;2.25;2.25;;;;;;;;5045428;28;10600;-72
2023/04/11 06:27:46;;;;;;;;;3.00;3.00;;;;;;;;5035037;28;10611;-72
2023/04/11 06:30:14;;;;;;;;;1.00;1.00;;;;;;;;5039552;28;10532;-73
2023/04/11 06:32:42;;;;;;;;;4.25;2.00;;;;;;;;5047332;28;10370;-74
2023/04/11 06:35:10;;;;;;;;;1.50;1.00;;;;;;;;5047541;28;10484;-72
2023/04/11 06:37:37;;;;;;;;;2.00;1.25;;;;;;;;5047036;28;10316;-73
2023/04/11 06:40:05;;;;;;;;;1.50;1.00;;;;;;;;5046261;28;10622;-75
2023/04/11 06:42:32;;;;;;;;;4.50;1.00;;;;;;;;5046451;28;10482;-73
2023/04/11 06:45:00;;;;;;;;;1.25;1.25;;;;;;;;5046316;28;10303;-74
2023/04/11 06:47:27;;;;;;;;;2.25;2.25;;;;;;;;5046644;28;10457;-74
2023/04/11 06:49:56;;;;;;;;;2.00;2.00;;;;;;;;5046561;28;10682;-75
2023/04/11 06:52:23;;;;;;;;;1.50;1.50;;;;;;;;5047202;28;10467;-74
2023/04/11 06:54:50;;;;;;;;;3.00;2.00;;;;;;;;5046958;28;10431;-73
2023/04/11 06:57:17;;;;;;;;;3.75;1.50;;;;;;;;5047656;28;10317;-78
2023/04/11 06:59:45;;;;;;;;;2.25;2.00;;;;;;;;5046872;28;10390;-74
2023/04/11 07:02:12;;;;;;;;;2.50;2.00;;;;;;;;5046373;28;10274;-76
2023/04/11 07:04:39;;;;;;;;;4.50;2.00;;;;;;;;5046730;28;11009;-76
2023/04/11 07:07:08;;;;;;;;;1.00;1.00;;;;;;;;5046345;28;10366;-75
2023/04/11 07:09:35;;;;;;;;;2.50;2.25;;;;;;;;5046231;28;10303;-75
2023/04/11 07:12:04;;;;;;;;;3.00;1.00;;;;;;;;5046174;28;10336;-75
2023/04/11 07:14:31;;;;;;;;;2.00;2.00;;;;;;;;5046752;28;10942;-74
2023/04/11 07:16:59;;;;;;;;;1.50;0.50;;;;;;;;5046094;28;10315;-74
2023/04/11 07:19:26;;;;;;;;;3.75;2.00;;;;;;;;5045775;28;10160;-75
2023/04/11 07:21:53;;;;;;;;;3.75;1.00;;;;;;;;5045650;28;10185;-75
2023/04/11 07:24:22;;;;;;;;;7.00;2.25;;;;;;;;5046048;28;10210;-75
2023/04/11 07:26:50;;;;;;;;;1.00;1.00;;;;;;;;5045799;28;10460;-75
2023/04/11 07:29:17;;;;;;;;;2.50;1.50;;;;;;;;5046213;28;11267;-75
2023/04/11 07:31:45;;;;;;;;;3.50;1.75;;;;;;;;5045305;28;10310;-75
2023/04/11 07:34:12;;;;;;;;;5.00;2.00;;;;;;;;5045821;28;10325;-72
2023/04/11 07:36:40;;;;;;;;;3.00;3.00;;;;;;;;5046334;28;10288;-75
2023/04/11 07:39:11;;;;;;;;;2.00;2.00;;;;;;;;5046469;28;10381;-72
2023/04/11 07:41:39;;;;;;;;;3.75;2.00;;;;;;;;5034250;28;11176;-76
2023/04/11 07:44:08;;;;;;;;;3.00;1.00;;;;;;;;5049051;28;10574;-72
2023/04/11 07:46:35;;;;;;;;;1.00;1.00;;;;;;;;5050575;28;10322;-73
2023/04/11 07:49:02;;;;;;;;;3.25;1.50;;;;;;;;5049521;28;10229;-77
2023/04/11 07:51:30;;;;;;;;;4.75;2.00;;;;;;;;5050765;28;10238;-77
2023/04/11 07:53:57;;;;;;;;;2.25;2.25;;;;;;;;5037429;28;10496;-75
2023/04/11 07:56:24;;;;;;;;;2.00;2.00;;;;;;;;5050418;28;10167;-78
2023/04/11 07:58:52;;;;;;;;;2.50;1.00;;;;;;;;5049798;28;10096;-73
2023/04/11 08:01:21;;;;;;;;;3.75;2.50;;;;;;;;5050788;28;9931;-77
2023/04/11 08:03:48;;;;;;;;;4.50;4.00;;;;;;;;5051641;28;9985;-74
2023/04/11 08:06:15;;;;;;;;;4.00;1.25;;;;;;;;5054528;28;9884;-75
2023/04/11 08:08:42;;;;;;;;;3.00;1.25;;;;;;;;5051905;28;9760;-74
2023/04/11 08:11:09;;;;;;;;;3.25;3.25;;;;;;;;5051482;28;9659;-74
2023/04/11 08:13:36;;;;;;;;;3.25;2.25;;;;;;;;5049770;28;9703;-74
2023/04/11 08:16:06;;;;;;;;;6.00;4.00;;;;;;;;5048826;28;9624;-73
2023/04/11 08:18:34;;;;;;;;;1.75;1.75;;;;;;;;5042356;28;9624;-74
2023/04/11 08:21:01;;;;;;;;;3.00;2.25;;;;;;;;5049408;28;10231;-73
2023/04/11 08:23:29;;;;;;;;;4.25;2.25;;;;;;;;5049398;28;9566;-74
2023/04/11 08:25:56;;;;;;;;;5.00;2.75;;;;;;;;5049413;28;9576;-73
2023/04/11 08:28:24;;;;;;;;;2.25;1.75;;;;;;;;5049154;28;9541;-74
2023/04/11 08:30:54;;;;;;;;;4.00;3.00;;;;;;;;5048747;28;9320;-74
2023/04/11 08:33:24;;;;;;;;;1.67;1.67;;;;;;;;5049256;28;9590;-74
2023/04/11 08:35:52;;;;;;;;;6.00;3.00;;;;;;;;5049151;28;9393;-74
2023/04/11 08:38:19;;;;;;;;;3.00;3.00;;;;;;;;5048988;28;9325;-75
2023/04/11 08:40:46;;;;;;;;;2.67;2.00;;;;;;;;5048497;28;9376;-75
2023/04/11 08:43:13;;;;;;;;;5.00;3.00;;;;;;;;5049064;28;9336;-75
2023/04/11 08:45:41;;;;;;;;;3.00;3.00;;;;;;;;5049172;28;9378;-75
2023/04/11 08:48:10;;;;;;;;;7.00;3.67;;;;;;;;5048920;28;9484;-75
2023/04/11 08:50:40;;;;;;;;;4.00;4.00;;;;;;;;5049815;28;9483;-76
2023/04/11 08:53:09;;;;;;;;;3.75;3.75;;;;;;;;5039627;28;9256;-77
2023/04/11 08:55:43;;;;;;;;;4.75;2.25;;;;;;;;5049492;28;9505;-77
2023/04/11 08:58:11;;;;;;;;;4.75;2.00;;;;;;;;5049746;28;9571;-77
2023/04/11 09:00:38;;;;;;;;;2.67;2.00;;;;;;;;5048451;28;9391;-77
2023/04/11 09:03:07;;;;;;;;;4.00;4.00;;;;;;;;5048498;28;9375;-76
2023/04/11 09:05:35;;;;;;;;;4.00;2.33;;;;;;;;5048786;28;9334;-76
2023/04/11 09:08:06;;;;;;;;;3.67;2.00;;;;;;;;5049139;28;9254;-77
2023/04/11 09:10:35;;;;;;;;;2.00;2.00;;;;;;;;5048691;28;9131;-78
2023/04/11 09:13:19;;;;;;;;;5.00;3.33;;;;;;;;5048461;28;9844;-76
2023/04/11 09:15:47;;;;;;;;;4.00;3.00;;;;;;;;5048617;28;9361;-78
2023/04/11 09:18:32;;;;;;;;;2.67;1.67;;;;;;;;5048026;28;9160;-77
2023/04/11 09:21:01;;;;;;;;;4.00;2.00;;;;;;;;5048624;28;9304;-77
2023/04/11 09:23:29;;;;;;;;;1.67;1.67;;;;;;;;5048071;28;9190;-78
2023/04/11 09:25:57;;;;;;;;;2.00;2.00;;;;;;;;5048508;28;9354;-77
2023/04/11 09:28:24;;;;;;;;;2.00;2.00;;;;;;;;5048196;28;9198;-74
2023/04/11 09:30:53;;;;;;;;;2.00;2.00;;;;;;;;5048073;28;9104;-73
2023/04/11 09:33:22;;;;;;;;;2.67;1.00;;;;;;;;5048065;28;9020;-76
2023/04/11 09:35:50;;;;;;;;;4.33;2.00;;;;;;;;5048213;28;9676;-75
2023/04/11 09:38:32;;;;;;;;;2.00;2.00;;;;;;;;5048580;28;9168;-77
2023/04/11 09:41:00;;;;;;;;;2.25;2.25;;;;;;;;5036242;28;9019;-76
2023/04/11 09:43:28;;;;;;;;;1.75;1.75;;;;;;;;5039564;28;8878;-75
2023/04/11 09:46:17;;;;;;;;;2.00;2.00;;;;;;;;5048211;28;8870;-77
2023/04/11 09:48:44;;;;;;;;;1.75;1.50;;;;;;;;5041608;28;8897;-76
2023/04/11 09:51:11;;;;;;;;;3.25;2.25;;;;;;;;5048278;28;8865;-77
2023/04/11 09:53:41;;;;;;;;;1.00;1.00;;;;;;;;5049429;28;8843;-76
2023/04/11 09:56:09;;;;;;;;;3.50;3.00;;;;;;;;5045737;28;8865;-77
2023/04/11 09:58:38;;;;;;;;;2.75;2.00;;;;;;;;5052353;28;8858;-78
2023/04/11 10:01:07;;;;;;;;;1.00;1.00;;;;;;;;5055146;28;8890;-77
2023/04/11 10:03:35;;;;;;;;;1.50;1.50;;;;;;;;5049879;28;8935;-80
2023/04/11 10:06:06;;;;;;;;;3.50;1.25;;;;;;;;5049490;28;8843;-76
2023/04/11 10:08:35;;;;;;;;;1.50;0.00;;;;;;;;5040237;28;8994;-76
2023/04/11 10:11:07;;;;;;;;;1.75;1.75;;;;;;;;5047030;28;8871;-77
2023/04/11 10:13:39;;;;;;;;;1.00;1.00;;;;;;;;5044817;28;8846;-76
2023/04/11 10:16:08;;;;;;;;;1.00;1.00;;;;;;;;5038847;28;8964;-77
2023/04/11 10:18:36;;;;;;;;;2.75;2.00;;;;;;;;5046506;28;8908;-76
2023/04/11 10:21:04;;;;;;;;;1.00;0.00;;;;;;;;5046908;28;8858;-76
2023/04/11 10:24:09;;;;;;;;;1.50;1.00;;;;;;;;5046821;28;8872;-77
2023/04/11 10:26:48;;;;;;;;;2.75;2.25;;;;;;;;5047193;28;8948;-79
2023/04/11 10:29:51;;;;;;;;;4.25;2.00;;;;;;;;5046863;28;8863;-80
2023/04/11 10:32:23;;;;;;;;;3.50;1.25;;;;;;;;5038966;28;8791;-77
2023/04/11 10:35:22;;;;;;;;;2.50;1.00;;;;;;;;5046892;28;8853;-79
2023/04/11 10:37:50;;;;;;;;;1.00;1.00;;;;;;;;5047224;28;8893;-78
2023/04/11 10:40:19;;;;;;;;;1.00;1.00;;;;;;;;5048192;28;8858;-81
2023/04/11 10:42:48;;;;;;;;;2.00;0.75;;;;;;;;5048057;28;8862;-81
2023/04/11 10:45:17;;;;;;;;;4.50;1.25;;;;;;;;5049223;28;8854;-78
2023/04/11 10:47:51;;;;;;;;;1.50;1.50;;;;;;;;5047960;28;8869;-78
2023/04/11 10:50:36;;;;;;;;;1.00;1.00;;;;;;;;5047415;28;8898;-78
2023/04/11 10:53:05;;;;;;;;;1.00;1.00;;;;;;;;5045760;28;8865;-78
2023/04/11 10:55:44;;;;;;;;;1.00;1.00;;;;;;;;5046633;28;8977;-78
2023/04/11 10:58:15;;;;;;;;;0.00;0.00;;;;;;;;5047605;28;8873;-77
2023/04/11 11:01:13;;;;;;;;;1.00;1.00;;;;;;;;5045876;28;8814;-78
2023/04/11 11:03:40;;;;;;;;;0.75;0.75;;;;;;;;5044280;28;8970;-78
2023/04/11 11:06:08;;;;;;;;;2.75;1.00;;;;;;;;5047322;28;8977;-77
2023/04/11 11:08:40;;;;;;;;;1.00;1.00;;;;;;;;5046510;28;8965;-79
2023/04/11 11:11:08;;;;;;;;;1.75;1.75;;;;;;;;5047792;28;8846;-79
2023/04/11 11:13:43;;;;;;;;;2.25;1.00;;;;;;;;5047401;28;8882;-79
2023/04/11 11:16:14;;;;;;;;;0.00;0.00;;;;;;;;5047329;28;8891;-76
2023/04/11 11:18:43;;;;;;;;;0.00;0.00;;;;;;;;5047198;28;8855;-76
2023/04/11 11:21:10;;;;;;;;;0.50;0.50;;;;;;;;5051065;28;8846;-75
2023/04/11 11:23:37;;;;;;;;;1.00;1.00;;;;;;;;5050311;28;8857;-74
2023/04/11 11:26:04;;;;;;;;;1.00;1.00;;;;;;;;5050513;28;8984;-74
2023/04/11 11:28:31;;;;;;;;;1.50;0.75;;;;;;;;5050640;28;8874;-75
2023/04/11 11:31:00;;;;;;;;;1.75;1.00;;;;;;;;5049003;28;8891;-76
2023/04/11 11:33:27;;;;;;;;;1.75;1.00;;;;;;;;5039439;28;8869;-75
2023/04/11 11:35:56;;;;;;;;;1.00;1.00;;;;;;;;5046091;28;9024;-74
2023/04/11 11:38:26;;;;;;;;;1.00;1.00;;;;;;;;5050488;28;8885;-74
2023/04/11 11:40:53;;;;;;;;;3.00;1.25;;;;;;;;5046622;28;8846;-74
2023/04/11 11:43:21;;;;;;;;;4.00;3.00;;;;;;;;5051146;28;8880;-75
2023/04/11 11:45:50;;;;;;;;;5.00;5.00;;;;;;;;5050804;28;8853;-75
2023/04/11 11:48:23;;;;;;;;;2.50;2.00;;;;;;;;5051105;28;8886;-75
2023/04/11 11:50:56;;;;;;;;;3.75;2.75;;;;;;;;5048484;28;8861;-74
2023/04/11 11:53:24;;;;;;;;;2.50;1.00;;;;;;;;5055666;28;8866;-74
2023/04/11 11:55:51;;;;;;;;;0.50;0.50;;;;;;;;5043070;28;8880;-74
2023/04/11 11:58:19;;;;;;;;;3.00;1.75;;;;;;;;5045395;28;8854;-74
2023/04/11 12:00:48;;;;;;;;;3.50;2.50;;;;;;;;5048188;28;9637;-74
2023/04/11 12:03:19;;;;;;;;;2.75;0.75;;;;;;;;5049384;28;8859;-74
2023/04/11 12:05:50;;;;;;;;;1.00;1.00;;;;;;;;5040777;28;8887;-74
2023/04/11 12:08:20;;;;;;;;;2.25;1.00;;;;;;;;5043105;28;8968;-74
2023/04/11 12:10:48;;;;;;;;;3.00;1.25;;;;;;;;5049549;28;8855;-74
2023/04/11 12:13:18;;;;;;;;;1.25;1.25;;;;;;;;5049281;28;8903;-76
2023/04/11 12:15:49;;;;;;;;;1.25;1.00;;;;;;;;5049610;28;8872;-74
2023/04/11 12:18:16;;;;;;;;;1.00;1.00;;;;;;;;5048455;28;8957;-73
2023/04/11 12:20:43;;;;;;;;;3.00;1.25;;;;;;;;5048875;28;8868;-75
2023/04/11 12:23:12;;;;;;;;;1.00;1.00;;;;;;;;5049601;28;8838;-75
2023/04/11 12:25:40;;;;;;;;;1.00;1.00;;;;;;;;5050353;28;8864;-73
2023/04/11 12:28:08;;;;;;;;;1.00;1.00;;;;;;;;5048838;28;8928;-77
2023/04/11 12:30:35;;;;;;;;;1.00;1.00;;;;;;;;5049131;28;9587;-74
2023/04/11 12:33:02;;;;;;;;;0.25;0.25;;;;;;;;5048972;28;8854;-73
2023/04/11 12:35:29;;;;;;;;;1.50;1.00;;;;;;;;5049899;28;8843;-73
2023/04/11 12:37:56;;;;;;;;;1.50;0.50;;;;;;;;5040283;28;8988;-73
2023/04/11 12:40:25;;;;;;;;;2.00;2.00;;;;;;;;5041722;28;8865;-73
2023/04/11 12:42:53;;;;;;;;;1.00;1.00;;;;;;;;5046448;28;8855;-73
2023/04/11 12:45:20;;;;;;;;;1.00;1.00;;;;;;;;5048928;28;9053;-73
2023/04/11 12:47:47;;;;;;;;;1.00;1.00;;;;;;;;5038091;28;8877;-74
2023/04/11 12:50:14;;;;;;;;;2.75;1.00;;;;;;;;5049098;28;8842;-73
2023/04/11 12:52:41;;;;;;;;;1.00;1.00;;;;;;;;5048873;28;8885;-73
2023/04/11 12:55:09;;;;;;;;;1.25;1.25;;;;;;;;5049311;28;8859;-74
2023/04/11 12:57:38;;;;;;;;;1.50;0.75;;;;;;;;5048149;28;8971;-73
2023/04/11 13:00:09;;;;;;;;;0.00;0.00;;;;;;;;5048499;28;8835;-73
2023/04/11 13:02:37;;;;;;;;;3.75;1.75;;;;;;;;5048474;28;8901;-73
2023/04/11 13:05:05;;;;;;;;;1.75;1.00;;;;;;;;5048762;28;8877;-74
2023/04/11 13:07:33;;;;;;;;;1.00;1.00;;;;;;;;5048509;28;8874;-73
2023/04/11 13:10:02;;;;;;;;;0.00;0.00;;;;;;;;5048290;28;8831;-75
2023/04/11 13:12:29;;;;;;;;;1.00;1.00;;;;;;;;5048682;28;8831;-76
2023/04/11 13:14:57;;;;;;;;;2.50;1.00;;;;;;;;5048456;28;8873;-73
2023/04/11 13:17:24;;;;;;;;;0.50;0.50;;;;;;;;5048415;28;8854;-72
2023/04/11 13:19:52;;;;;;;;;2.00;0.75;;;;;;;;5047723;28;8875;-73
2023/04/11 13:22:19;;;;;;;;;2.50;1.00;;;;;;;;5041732;28;8987;-74
2023/04/11 13:24:47;;;;;;;;;1.00;0.00;;;;;;;;5044244;28;8954;-73
2023/04/11 13:27:14;;;;;;;;;1.50;1.50;;;;;;;;5049009;28;8877;-73
2023/04/11 13:29:41;;;;;;;;;0.50;0.50;;;;;;;;5049009;28;8862;-73
2023/04/11 13:32:10;;;;;;;;;3.25;1.75;;;;;;;;5049516;28;8807;-74
2023/04/11 13:34:37;;;;;;;;;2.00;0.25;;;;;;;;5047803;28;8877;-74
2023/04/11 13:37:05;;;;;;;;;10.50;6.00;;;;;;;;5048572;28;8873;-73
2023/04/11 13:39:32;;;;;;;;;1.00;1.00;;;;;;;;5049212;28;8878;-74
2023/04/11 13:41:59;;;;;;;;;2.25;1.00;;;;;;;;5049032;28;8854;-75
2023/04/11 13:44:26;;;;;;;;;1.00;1.00;;;;;;;;5052348;28;8851;-74
2023/04/11 13:46:54;;;;;;;;;2.50;0.75;;;;;;;;5051229;28;8903;-75
2023/04/11 13:49:22;;;;;;;;;1.00;1.00;;;;;;;;5048376;28;8861;-73
2023/04/11 13:51:49;;;;;;;;;0.75;0.75;;;;;;;;5048804;28;8846;-74
2023/04/11 13:54:17;;;;;;;;;2.00;0.00;;;;;;;;5048443;28;8880;-73
2023/04/11 13:56:45;;;;;;;;;0.50;0.25;;;;;;;;5048057;28;8851;-73
2023/04/11 13:59:12;;;;;;;;;0.50;0.50;;;;;;;;5040219;28;8885;-72
2023/04/11 14:01:39;;;;;;;;;1.00;1.00;;;;;;;;5048036;28;8837;-73
2023/04/11 14:04:06;;;;;;;;;1.00;1.00;;;;;;;;5048031;28;8851;-73
2023/04/11 14:06:36;;;;;;;;;0.75;0.75;;;;;;;;5056631;28;8882;-73
2023/04/11 14:09:04;;;;;;;;;0.25;0.25;;;;;;;;5048067;28;8868;-73
2023/04/11 14:11:31;;;;;;;;;2.00;0.75;;;;;;;;5048056;28;8835;-73
2023/04/11 14:13:59;;;;;;;;;1.00;1.00;;;;;;;;5048303;28;8862;-72
2023/04/11 14:16:26;;;;;;;;;1.00;1.00;;;;;;;;5047895;28;8959;-73
2023/04/11 14:18:53;;;;;;;;;0.75;0.75;;;;;;;;5047504;28;9641;-72
2023/04/11 14:21:20;;;;;;;;;3.00;1.00;;;;;;;;5047241;28;8854;-74
2023/04/11 14:23:49;;;;;;;;;0.50;0.50;;;;;;;;5047673;28;8866;-73
2023/04/11 14:26:17;;;;;;;;;1.75;1.75;;;;;;;;5047649;28;8855;-73
2023/04/11 14:28:44;;;;;;;;;1.50;1.00;;;;;;;;5047528;28;8850;-73
2023/04/11 14:31:11;;;;;;;;;1.00;1.00;;;;;;;;5047095;28;8794;-73
2023/04/11 14:33:38;;;;;;;;;1.00;1.00;;;;;;;;5048427;28;8850;-73
2023/04/11 14:36:06;;;;;;;;;1.00;1.00;;;;;;;;5047163;28;8843;-74
2023/04/11 14:38:33;;;;;;;;;0.00;0.00;;;;;;;;5047753;28;8913;-73
2023/04/11 14:41:02;;;;;;;;;1.00;1.00;;;;;;;;5047149;28;8866;-73
2023/04/11 14:43:29;;;;;;;;;2.25;1.00;;;;;;;;5040332;28;9497;-72
2023/04/11 14:45:57;;;;;;;;;2.75;0.75;;;;;;;;5032511;28;8858;-72
2023/04/11 14:48:27;;;;;;;;;1.00;1.00;;;;;;;;5048134;28;8968;-73
2023/04/11 14:50:55;;;;;;;;;2.00;1.00;;;;;;;;5046825;28;8934;-72
2023/04/11 14:53:22;;;;;;;;;4.00;1.75;;;;;;;;5047262;28;9705;-72
2023/04/11 14:55:50;;;;;;;;;1.00;1.00;;;;;;;;5047020;28;8823;-72